Lisatud eesti meteogram Menüü: EMHI-meteogram / Nüüd töötab ka EWN(European Weather Network) Menüü: Veel prognoose-EWN
Sager algoritm eesti keeles nüüd Menüü: Veel prognoose-Sager algoritm / UUS! Menüü: Veel prognoose-RootsiTabel
Andke teada probleemidest/ettepanekutest menüüs: Muu kraam - Saada kiri.
Tuul Alates: 21-01-2022 21:17 Kuni: 22-01-2022 21:17 hoiatus: Tuul Tase: Kollane info button
põhjatuul 16-20, puhanguti kuni 25 m/s.north wind 16-20, in gusts up to 25 m/s. 


/home/edgarnuum/domains/hotserv.eq.ee/public_html/nautical/metar/metarDisplay.php

Nearby METAR Reports

   
EEKE - Kuressaare, Estonia
Distance from station: SE 3 km
Uuendatud: 22-01-2022 01:50
Overcast  
Overcast  
   Tuul: North 6.7 m/s
Tuul: North 6.7 m/s
Temperatuur: -2°C
Wind Chill: -8°C
Kastepunkt: -5°C
Niiskus: 80%
Baromeeter: 1011 hPa
Pilvisus: Overcast
Nähtavus: 10 km
Cloud details: Few Clouds 701 m,
Overcast 883.9 m
EEKE 212350Z AUTO 36013KT 9999NDV FEW023 OVC029 M02/M05 Q1011
EEKA - Kardla, Estonia
Distance from station: NNE 84 km
Uuendatud: 21-01-2022 18:20
NOT Current
Overcast  
Overcast  
   Tuul: North 15.9 m/s
Tuul: North 15.9 m/s
Temperatuur: -1°C
Wind Chill: -10°C
Kastepunkt: -5°C
Niiskus: 75%
Baromeeter: 1005 hPa
Pilvisus: Overcast
Nähtavus: More than 10 km
Cloud details: Overcast 914.4 m
EEKA 211620Z 35031KT 9999 OVC030 M01/M05 Q1005
EEEI - Harjumaa Amari, Estonia
Distance from station: NE 151 km
Uuendatud: 22-01-2022 01:50
Light Snow, Overcast  
Light Snow, Overcast  
   Tuul: NNE 6.7 m/s
Tuul: NNE 6.7 m/s
Temperatuur: -2°C
Wind Chill: -8°C
Kastepunkt: -6°C
Niiskus: 74%
Baromeeter: 1010 hPa
Pilvisus: Overcast
Nähtavus: More than 10 km
Cloud details: Overcast 548.6 m
EEEI 212350Z AUTO 02013KT 350V050 9999 -SN OVC018/// M02/M06 Q1010
EETN - Tallinn L. Meri, Estonia
Distance from station: NE 187 km
Uuendatud: 22-01-2022 01:50
Low Drifting, Lumi, Overcast  
Low Drifting, Lumi, Overcast  
   Tuul: NNE 6.2 m/s
Tuul: NNE 6.2 m/s
Temperatuur: -2°C
Wind Chill: -8°C
Kastepunkt: -5°C
Niiskus: 80%
Baromeeter: 1010 hPa
Pilvisus: Overcast
Nähtavus: More than 10 km
Cloud details: Overcast 457.2 m
EETN 212350Z 02012KT 350V050 9999 DRSN OVC015 M02/M05 Q1010
EETU - Tartu, Estonia
Distance from station: E 245 km
Uuendatud: 22-01-2022 01:50
Snow Grains, Overcast  
Snow Grains, Overcast  
   Tuul: North 4.6 m/s
Tuul: North 4.6 m/s
Temperatuur: -2°C
Wind Chill: -7°C
Kastepunkt: -4°C
Niiskus: 86%
Baromeeter: 1005 hPa
Pilvisus: Overcast
Nähtavus: More than 10 km
Cloud details: Few Clouds 396.2 m,
Osaliselt pilves 609.6 m,
Overcast 1097.3 m
EETU 212350Z AUTO 01009KT 9999 SG FEW013/// SCT020/// OVC036/// M02/M04 Q1005
 

Script developed by  Saratoga-weather.org Adapted for the template by  Weerstation Leuven